Red Hill, Pennsylvania
Current Conditions -  °F | °C
As of 2:15 PM on Friday 21 Nov 2014 (Local Time) from KUKT Reporting Station
Clear Clear  
Wind Chill: 25°   Ceiling: Unl
Heat Index: 32°   Visibility: 10mi
Dew Point:   Wind: 8mph
Humidity: 38%   Direction: 310°NW
Pressure: 30.36"   Gusts: 17mph
Location:  40.37°N, 75.48°W
Report Text: KUKT 211915Z AUTO 31007G15KT 10SM CLR 00/M13 A3036 RMK AO1
Loading
Personal Weather Stations






























Interactive Weather Map New forecast layout! Learn more

10-Day Weather Forecast

Advertisements
Track Severe Weather on mobile